createdAt,value
2019-02-26T00:01:28.709Z,31.80
2019-02-26T00:03:59.802Z,29.13
2019-02-26T00:06:30.316Z,32.37
2019-02-26T00:09:03.189Z,32.77
2019-02-26T00:11:36.177Z,29.20
2019-02-26T00:14:06.529Z,30.17
2019-02-26T00:16:39.681Z,42.57
2019-02-26T00:19:09.798Z,49.00
2019-02-26T00:21:43.110Z,53.17
2019-02-26T00:24:14.598Z,48.60
2019-02-26T00:26:45.759Z,44.10
2019-02-26T00:29:16.368Z,37.27
2019-02-26T00:31:48.550Z,39.93
2019-02-26T00:34:18.905Z,33.20
2019-02-26T00:36:50.381Z,43.67
2019-02-26T00:39:22.649Z,50.57
2019-02-26T00:41:53.570Z,55.30
2019-02-26T00:44:25.270Z,57.17
2019-02-26T00:46:59.362Z,58.30
2019-02-26T00:49:30.224Z,56.53
2019-02-26T00:52:00.797Z,55.80
2019-02-26T00:54:31.970Z,53.50
2019-02-26T00:57:05.751Z,56.50
2019-02-26T00:59:36.643Z,62.13
2019-02-26T01:02:07.683Z,59.83
2019-02-26T01:04:39.081Z,56.57
2019-02-26T01:07:10.075Z,54.20
2019-02-26T01:09:40.539Z,56.33
2019-02-26T01:12:11.812Z,58.80
2019-02-26T01:14:44.197Z,47.80
2019-02-26T01:17:16.980Z,40.87
2019-02-26T01:19:47.478Z,50.20
2019-02-26T01:22:18.034Z,44.67
2019-02-26T01:24:49.859Z,46.67
2019-02-26T01:27:20.646Z,49.70
2019-02-26T01:29:51.811Z,46.30
2019-02-26T01:32:24.874Z,41.03
2019-02-26T01:34:55.255Z,38.27
2019-02-26T01:37:27.695Z,44.43
2019-02-26T01:39:58.086Z,58.67
2019-02-26T01:42:29.853Z,57.43
2019-02-26T01:45:00.749Z,54.43
2019-02-26T01:47:31.340Z,57.83
2019-02-26T01:50:01.773Z,58.37
2019-02-26T01:52:32.425Z,60.60
2019-02-26T01:55:02.983Z,57.23
2019-02-26T01:57:33.493Z,56.60
2019-02-26T02:00:06.910Z,58.90
2019-02-26T02:02:38.953Z,56.97
2019-02-26T02:05:10.623Z,54.20
2019-02-26T02:07:41.293Z,48.33
2019-02-26T02:10:13.298Z,37.13
2019-02-26T02:12:43.950Z,37.37
2019-02-26T02:15:15.792Z,32.33
2019-02-26T02:17:46.968Z,32.20
2019-02-26T02:20:21.271Z,25.67
2019-02-26T02:22:49.744Z,23.87
2019-02-26T02:25:20.253Z,23.90
2019-02-26T02:27:54.172Z,26.83
2019-02-26T02:30:27.205Z,24.37
2019-02-26T02:32:57.048Z,24.67
2019-02-26T02:35:27.029Z,22.53
2019-02-26T02:38:00.139Z,23.83
2019-02-26T02:40:29.679Z,22.60
2019-02-26T02:43:03.972Z,24.67
2019-02-26T02:45:32.323Z,23.80
2019-02-26T02:48:03.303Z,24.87
2019-02-26T02:50:34.967Z,22.73
2019-02-26T02:53:05.420Z,22.30
2019-02-26T02:55:37.773Z,25.53
2019-02-26T02:58:08.093Z,27.47
2019-02-26T03:00:38.562Z,24.80
2019-02-26T03:03:09.109Z,23.97
2019-02-26T03:05:41.287Z,24.07
2019-02-26T03:08:13.954Z,25.50
2019-02-26T03:10:45.081Z,23.97
2019-02-26T03:13:16.991Z,25.97
2019-02-26T03:15:50.073Z,26.37
2019-02-26T03:18:19.834Z,25.93
2019-02-26T03:20:51.396Z,23.63
2019-02-26T03:23:22.414Z,25.70
2019-02-26T03:25:54.918Z,25.57
2019-02-26T03:28:25.100Z,29.47
2019-02-26T03:30:55.581Z,28.30
2019-02-26T03:33:26.078Z,28.80
2019-02-26T03:35:56.496Z,32.17
2019-02-26T03:38:28.863Z,28.80
2019-02-26T03:41:03.205Z,30.50
2019-02-26T03:43:34.007Z,30.40
2019-02-26T03:46:03.721Z,29.23
2019-02-26T03:48:34.220Z,28.50
2019-02-26T03:51:05.782Z,26.87
2019-02-26T03:53:38.475Z,29.50
2019-02-26T03:56:11.713Z,29.23
2019-02-26T03:58:40.552Z,33.23
2019-02-26T04:01:13.629Z,33.77
2019-02-26T04:03:43.330Z,48.90
2019-02-26T04:06:13.815Z,64.83
2019-02-26T04:08:46.233Z,61.50
2019-02-26T04:11:19.244Z,38.23
2019-02-26T04:13:51.480Z,36.37
2019-02-26T04:16:20.945Z,49.30
2019-02-26T04:18:52.101Z,62.50
2019-02-26T04:21:22.705Z,69.63
2019-02-26T04:23:53.468Z,75.40
2019-02-26T04:26:52.084Z,78.27
2019-02-26T04:29:44.057Z,68.57
2019-02-26T04:32:49.103Z,69.07
2019-02-26T04:35:50.111Z,62.33
2019-02-26T04:38:55.618Z,81.87
2019-02-26T04:41:56.257Z,80.20
2019-02-26T04:45:08.359Z,68.97
2019-02-26T04:47:37.151Z,75.00
2019-02-26T04:50:08.963Z,77.07
2019-02-26T04:52:41.223Z,62.97
2019-02-26T04:55:12.061Z,49.57
2019-02-26T04:57:45.423Z,55.40
2019-02-26T05:00:14.885Z,62.70
2019-02-26T05:02:45.788Z,77.70
2019-02-26T05:05:16.202Z,80.23
2019-02-26T05:07:47.987Z,71.07
2019-02-26T05:10:20.563Z,55.80
2019-02-26T05:12:53.465Z,44.30
2019-02-26T05:15:23.975Z,40.33
2019-02-26T05:17:55.118Z,42.67
2019-02-26T05:20:25.570Z,40.43
2019-02-26T05:22:58.453Z,38.70
2019-02-26T05:25:28.868Z,35.47
2019-02-26T05:27:59.376Z,34.83
2019-02-26T05:30:29.991Z,38.87
2019-02-26T05:33:02.899Z,37.13
2019-02-26T05:35:33.084Z,35.27
2019-02-26T05:38:06.803Z,38.27
2019-02-26T05:40:37.905Z,36.63
2019-02-26T05:43:08.125Z,35.50
2019-02-26T05:45:38.695Z,33.93
2019-02-26T05:48:09.280Z,36.60
2019-02-26T05:50:43.850Z,34.77
2019-02-26T05:53:13.441Z,35.73
2019-02-26T05:55:47.472Z,34.10
2019-02-26T05:58:18.854Z,30.60
2019-02-26T06:00:48.591Z,37.97
2019-02-26T06:03:19.069Z,37.07
2019-02-26T06:05:51.977Z,31.23
2019-02-26T06:08:25.716Z,36.30
2019-02-26T06:10:54.775Z,32.37
2019-02-26T06:13:25.345Z,34.77
2019-02-26T06:15:58.642Z,34.17
2019-02-26T06:18:28.087Z,30.70
2019-02-26T06:21:01.224Z,38.83
2019-02-26T06:23:33.552Z,33.30
2019-02-26T06:26:08.913Z,30.70
2019-02-26T06:28:40.174Z,36.40
2019-02-26T06:31:11.537Z,35.47
2019-02-26T06:33:43.101Z,36.20
2019-02-26T06:36:13.232Z,34.80
2019-02-26T06:38:43.692Z,37.17
2019-02-26T06:41:14.441Z,37.97
2019-02-26T06:43:47.793Z,38.60
2019-02-26T06:46:17.180Z,37.80
2019-02-26T06:48:47.730Z,37.40
2019-02-26T06:51:19.074Z,37.63
2019-02-26T06:53:52.229Z,38.00
2019-02-26T06:56:22.826Z,42.13
2019-02-26T06:58:53.299Z,38.23
2019-02-26T07:01:23.838Z,38.83
2019-02-26T07:03:56.175Z,37.47
2019-02-26T07:06:27.715Z,31.33
2019-02-26T07:08:58.546Z,37.93
2019-02-26T07:11:31.331Z,39.77
2019-02-26T07:14:03.110Z,41.93
2019-02-26T07:16:33.537Z,42.50
2019-02-26T07:19:06.405Z,41.23
2019-02-26T07:21:38.007Z,40.40
2019-02-26T07:24:08.362Z,40.47
2019-02-26T07:26:41.187Z,43.07
2019-02-26T07:29:13.155Z,39.23
2019-02-26T07:31:43.338Z,42.20
2019-02-26T07:34:15.732Z,41.00
2019-02-26T07:36:47.875Z,42.37
2019-02-26T07:39:20.125Z,44.07
2019-02-26T07:41:51.677Z,44.43
2019-02-26T07:44:24.281Z,41.93
2019-02-26T07:46:54.616Z,41.10
2019-02-26T07:49:25.169Z,41.37
2019-02-26T07:51:57.748Z,43.30
2019-02-26T07:54:29.102Z,45.10
2019-02-26T07:57:02.604Z,43.57
2019-02-26T07:59:34.880Z,42.83
2019-02-26T08:02:06.360Z,43.27
2019-02-26T08:04:38.924Z,38.77
2019-02-26T08:07:09.905Z,42.13
2019-02-26T08:09:40.421Z,47.43
2019-02-26T08:12:13.504Z,43.87
2019-02-26T08:14:45.314Z,43.43
2019-02-26T08:17:15.120Z,41.47
2019-02-26T08:19:47.251Z,43.47
2019-02-26T08:22:17.972Z,43.40
2019-02-26T08:24:50.456Z,45.37
2019-02-26T08:27:20.719Z,45.33
2019-02-26T08:29:51.694Z,42.67
2019-02-26T08:32:25.682Z,46.27
2019-02-26T08:34:59.254Z,44.77
2019-02-26T08:37:27.702Z,50.07
2019-02-26T08:39:58.296Z,45.10
2019-02-26T08:42:28.844Z,51.57
2019-02-26T08:44:59.449Z,44.43
2019-02-26T08:47:29.984Z,41.90
2019-02-26T08:50:01.755Z,48.50
2019-02-26T08:52:33.000Z,51.03
2019-02-26T08:55:03.567Z,48.90
2019-02-26T08:57:34.140Z,50.73
2019-02-26T09:00:05.977Z,52.20
2019-02-26T09:02:36.670Z,49.80
2019-02-26T09:05:09.866Z,45.60
2019-02-26T09:07:42.274Z,47.70
2019-02-26T09:10:14.947Z,48.37
2019-02-26T09:12:46.852Z,45.93
2019-02-26T09:15:17.711Z,51.50
2019-02-26T09:17:48.252Z,51.83
2019-02-26T09:20:18.693Z,51.97
2019-02-26T09:22:53.018Z,49.90
2019-02-26T09:25:25.561Z,46.20
2019-02-26T09:27:53.693Z,49.07
2019-02-26T09:30:24.150Z,50.27
2019-02-26T09:32:54.716Z,46.93
2019-02-26T09:35:28.395Z,50.93
2019-02-26T09:38:00.701Z,46.90
2019-02-26T09:40:33.458Z,50.13
2019-02-26T09:43:01.602Z,48.97
2019-02-26T09:45:32.297Z,50.03
2019-02-26T09:48:02.785Z,52.00
2019-02-26T09:50:33.537Z,50.37
2019-02-26T09:53:04.034Z,50.47
2019-02-26T09:55:34.472Z,50.37
2019-02-26T09:58:05.037Z,48.77
2019-02-26T10:00:35.521Z,50.40
2019-02-26T10:03:08.004Z,49.20
2019-02-26T10:05:38.236Z,50.03
2019-02-26T10:08:08.799Z,48.80
2019-02-26T10:10:39.762Z,46.57
2019-02-26T10:13:10.464Z,51.77
2019-02-26T10:15:42.762Z,46.40
2019-02-26T10:18:13.005Z,46.90
2019-02-26T10:20:47.020Z,45.03
2019-02-26T10:23:15.493Z,50.30
2019-02-26T10:25:46.049Z,45.97
2019-02-26T10:28:17.235Z,45.20
2019-02-26T10:30:48.820Z,57.93
2019-02-26T10:33:21.136Z,46.30
2019-02-26T10:35:51.683Z,43.13
2019-02-26T10:38:24.092Z,52.93
2019-02-26T10:40:56.828Z,50.57
2019-02-26T10:43:26.703Z,41.23
2019-02-26T10:45:57.249Z,39.03
2019-02-26T10:48:28.036Z,40.40
2019-02-26T10:50:58.567Z,43.90
2019-02-26T10:53:29.166Z,42.40
2019-02-26T10:55:59.663Z,37.63
2019-02-26T10:58:31.241Z,39.30
2019-02-26T11:01:05.238Z,38.83
2019-02-26T11:03:37.908Z,41.80
2019-02-26T11:06:09.869Z,40.17
2019-02-26T11:08:39.540Z,40.63
2019-02-26T11:11:13.057Z,42.07
2019-02-26T11:13:43.487Z,37.97
2019-02-26T11:16:16.978Z,39.13
2019-02-26T11:18:47.698Z,35.80
2019-02-26T11:21:18.338Z,37.73
2019-02-26T11:23:49.005Z,36.07
2019-02-26T11:26:19.488Z,35.13
2019-02-26T11:28:50.042Z,52.40
2019-02-26T11:31:25.351Z,46.30
2019-02-26T11:33:56.372Z,38.40
2019-02-26T11:36:25.178Z,50.50
2019-02-26T11:38:55.715Z,42.83
2019-02-26T11:41:27.027Z,39.63
2019-02-26T11:43:58.264Z,39.23
2019-02-26T11:46:29.823Z,38.67
2019-02-26T11:49:00.785Z,37.77
2019-02-26T11:51:37.072Z,35.80
2019-02-26T11:54:04.964Z,41.50
2019-02-26T11:56:38.515Z,33.90
2019-02-26T11:59:09.647Z,38.00
2019-02-26T12:01:42.139Z,32.83
2019-02-26T12:04:14.117Z,37.47
2019-02-26T12:06:44.851Z,37.13
2019-02-26T12:09:16.210Z,33.47
2019-02-26T12:11:46.802Z,34.43
2019-02-26T12:14:19.486Z,35.40
2019-02-26T12:16:49.564Z,35.07
2019-02-26T12:19:20.201Z,35.50
2019-02-26T12:21:51.863Z,28.77
2019-02-26T12:24:24.179Z,35.90
2019-02-26T12:26:55.025Z,34.50
2019-02-26T12:29:27.790Z,35.70
2019-02-26T12:31:58.231Z,37.87
2019-02-26T12:34:29.768Z,32.47
2019-02-26T12:37:02.653Z,33.60
2019-02-26T12:39:33.985Z,31.17
2019-02-26T12:42:04.466Z,35.00
2019-02-26T12:44:38.212Z,33.47
2019-02-26T12:47:07.081Z,31.30
2019-02-26T12:49:39.173Z,29.03
2019-02-26T12:52:09.801Z,30.00
2019-02-26T12:54:42.738Z,30.97
2019-02-26T12:57:12.385Z,30.87
2019-02-26T12:59:42.970Z,32.43
2019-02-26T13:02:16.726Z,34.10
2019-02-26T13:04:48.051Z,30.33
2019-02-26T13:07:17.927Z,30.67
2019-02-26T13:09:51.956Z,31.47
2019-02-26T13:12:24.001Z,26.77
2019-02-26T13:14:54.588Z,28.67
2019-02-26T13:17:28.560Z,31.10
2019-02-26T13:19:58.770Z,29.90
2019-02-26T13:22:29.172Z,28.17
2019-02-26T13:25:00.295Z,29.70
2019-02-26T13:27:32.187Z,30.60
2019-02-26T13:30:02.728Z,29.87
2019-02-26T13:32:54.344Z,29.97
2019-02-26T13:35:08.040Z,29.80
2019-02-26T13:37:41.942Z,29.13
2019-02-26T13:40:13.489Z,29.80
2019-02-26T13:42:49.913Z,26.40
2019-02-26T13:45:18.121Z,29.73
2019-02-26T13:47:48.701Z,28.73
2019-02-26T13:50:25.175Z,29.73
2019-02-26T13:52:55.678Z,28.17
2019-02-26T13:55:26.244Z,27.03
2019-02-26T13:57:56.833Z,25.43
2019-02-26T14:00:27.338Z,27.07
2019-02-26T14:02:58.016Z,40.97
2019-02-26T14:05:28.610Z,52.17
2019-02-26T14:07:59.072Z,51.40
2019-02-26T14:10:29.518Z,49.27
2019-02-26T14:13:00.050Z,38.60
2019-02-26T14:15:30.768Z,36.53
2019-02-26T14:18:01.247Z,23.23
2019-02-26T14:20:33.180Z,21.30
2019-02-26T14:23:03.587Z,18.53
2019-02-26T14:25:34.163Z,15.80
2019-02-26T14:28:04.616Z,16.07
2019-02-26T14:30:35.264Z,16.77
2019-02-26T14:33:05.790Z,14.90
2019-02-26T14:35:36.276Z,15.90
2019-02-26T14:38:06.943Z,18.73
2019-02-26T14:40:37.522Z,19.17
2019-02-26T14:43:08.032Z,21.13
2019-02-26T14:45:38.540Z,17.93
2019-02-26T14:48:09.174Z,18.60
2019-02-26T14:50:40.820Z,18.10
2019-02-26T14:53:11.491Z,21.53
2019-02-26T14:55:42.126Z,23.23
2019-02-26T14:58:12.642Z,21.37
2019-02-26T15:00:43.124Z,18.43
2019-02-26T15:03:13.853Z,19.00
2019-02-26T15:05:44.380Z,20.07
2019-02-26T15:08:14.872Z,19.17
2019-02-26T15:13:43.982Z,21.23
2019-02-26T15:16:14.490Z,20.50
2019-02-26T15:18:45.001Z,17.87
2019-02-26T15:21:16.016Z,23.00
2019-02-26T15:23:46.570Z,25.50
2019-02-26T15:26:18.249Z,24.33
2019-02-26T15:28:49.105Z,22.43
2019-02-26T15:31:19.717Z,21.70
2019-02-26T15:33:52.243Z,26.13
2019-02-26T15:36:25.197Z,21.77
2019-02-26T15:38:55.735Z,29.33
2019-02-26T15:41:26.464Z,25.53
2019-02-26T15:43:57.081Z,26.90
2019-02-26T15:46:28.615Z,28.63
2019-02-26T15:48:59.796Z,28.00
2019-02-26T15:51:30.357Z,29.53
2019-02-26T15:54:02.130Z,28.20
2019-02-26T15:56:32.647Z,28.63
2019-02-26T15:59:05.268Z,30.03
2019-02-26T16:01:35.766Z,29.63
2019-02-26T16:04:06.269Z,29.00
2019-02-26T16:06:36.939Z,29.67
2019-02-26T16:09:07.968Z,25.87
2019-02-26T16:11:39.061Z,27.80
2019-02-26T16:14:09.719Z,25.90
2019-02-26T16:16:40.319Z,26.47
2019-02-26T16:19:10.979Z,25.63
2019-02-26T16:21:44.337Z,26.50
2019-02-26T16:24:14.929Z,24.10
2019-02-26T16:26:45.421Z,28.17
2019-02-26T16:29:16.608Z,28.70
2019-02-26T16:31:47.415Z,26.97
2019-02-26T16:34:19.966Z,26.37
2019-02-26T16:36:50.920Z,26.70
2019-02-26T16:39:24.676Z,27.37
2019-02-26T16:41:54.489Z,25.57
2019-02-26T16:44:25.387Z,25.30
2019-02-26T16:46:56.025Z,24.77
2019-02-26T16:49:27.878Z,24.87
2019-02-26T16:52:00.867Z,26.57
2019-02-26T16:54:31.197Z,25.90
2019-02-26T16:57:01.759Z,27.10
2019-02-26T16:59:32.441Z,27.10
2019-02-26T17:02:02.859Z,28.80
2019-02-26T17:04:33.713Z,27.83
2019-02-26T17:07:04.331Z,29.67
2019-02-26T17:09:35.015Z,28.53
2019-02-26T17:12:05.507Z,30.20
2019-02-26T17:14:36.070Z,31.63
2019-02-26T17:17:06.696Z,32.10
2019-02-26T17:19:37.179Z,33.43
2019-02-26T17:22:07.753Z,36.53
2019-02-26T17:24:38.298Z,34.47
2019-02-26T17:27:09.151Z,38.10
2019-02-26T17:29:39.621Z,32.93
2019-02-26T17:32:10.141Z,38.53
2019-02-26T17:34:40.697Z,39.80
2019-02-26T17:37:11.163Z,36.33
2019-02-26T17:39:41.767Z,39.57
2019-02-26T17:42:12.329Z,40.13
2019-02-26T17:44:42.976Z,37.40
2019-02-26T17:47:13.593Z,37.90
2019-02-26T17:49:44.100Z,36.53
2019-02-26T17:52:14.752Z,33.07
2019-02-26T17:54:45.259Z,42.57
2019-02-26T17:57:16.016Z,38.63
2019-02-26T17:59:46.496Z,41.13
2019-02-26T18:02:17.000Z,39.13
2019-02-26T18:04:47.527Z,38.63
2019-02-26T18:07:18.223Z,38.33
2019-02-26T18:09:50.575Z,38.50
2019-02-26T18:12:21.106Z,40.93
2019-02-26T18:14:51.786Z,39.33
2019-02-26T18:17:22.336Z,42.37
2019-02-26T18:19:52.937Z,38.70
2019-02-26T18:22:23.690Z,41.00
2019-02-26T18:24:54.282Z,39.33
2019-02-26T18:27:24.872Z,43.73
2019-02-26T18:29:55.428Z,42.30
2019-02-26T18:32:26.007Z,40.60
2019-02-26T18:34:56.586Z,42.10
2019-02-26T18:37:27.218Z,45.77
2019-02-26T18:39:57.694Z,41.47
2019-02-26T18:42:28.229Z,40.97
2019-02-26T18:44:58.805Z,42.83
2019-02-26T18:47:29.373Z,42.37
2019-02-26T18:49:59.945Z,46.30
2019-02-26T18:52:30.566Z,46.33
2019-02-26T18:55:01.172Z,45.33
2019-02-26T18:57:32.292Z,47.37
2019-02-26T19:00:02.848Z,45.57
2019-02-26T19:02:36.011Z,46.07
2019-02-26T19:05:07.629Z,48.37
2019-02-26T19:07:39.168Z,46.90
2019-02-26T19:10:12.465Z,44.60
2019-02-26T19:12:43.172Z,44.13
2019-02-26T19:15:15.406Z,40.90
2019-02-26T19:17:48.110Z,42.43
2019-02-26T19:20:20.443Z,40.63
2019-02-26T19:22:52.030Z,43.33
2019-02-26T19:25:22.815Z,40.07
2019-02-26T19:27:53.685Z,43.27
2019-02-26T19:30:24.206Z,45.37
2019-02-26T19:32:57.046Z,45.90
2019-02-26T19:35:27.574Z,44.20
2019-02-26T19:37:58.872Z,44.43
2019-02-26T19:40:32.364Z,45.87
2019-02-26T19:43:02.920Z,48.07
2019-02-26T19:45:33.580Z,47.70
2019-02-26T19:48:04.326Z,50.63
2019-02-26T19:50:35.504Z,49.00
2019-02-26T19:53:06.074Z,49.97
2019-02-26T19:55:37.437Z,51.80
2019-02-26T19:58:08.106Z,50.73
2019-02-26T20:00:38.697Z,44.27
2019-02-26T20:03:09.228Z,53.67
2019-02-26T20:05:41.209Z,48.67
2019-02-26T20:08:12.126Z,51.07
2019-02-26T20:10:42.647Z,49.73
2019-02-26T20:13:13.488Z,49.97
2019-02-26T20:15:44.004Z,50.30
2019-02-26T20:18:20.534Z,52.20
2019-02-26T20:20:46.958Z,51.73
2019-02-26T20:23:17.770Z,51.40
2019-02-26T20:25:48.654Z,53.47
2019-02-26T20:28:20.288Z,51.17
2019-02-26T20:30:50.807Z,57.83
2019-02-26T20:33:21.397Z,51.03
2019-02-26T20:35:51.858Z,55.23
2019-02-26T20:38:22.442Z,59.57
2019-02-26T20:40:53.142Z,56.40
2019-02-26T20:43:23.692Z,62.10
2019-02-26T20:45:54.214Z,62.07
2019-02-26T20:48:24.666Z,57.63
2019-02-26T20:50:56.464Z,57.20
2019-02-26T20:53:27.098Z,56.90
2019-02-26T20:55:58.186Z,59.70
2019-02-26T20:58:28.653Z,61.27
2019-02-26T21:00:59.384Z,58.23
2019-02-26T21:03:30.018Z,58.23
2019-02-26T21:06:01.063Z,57.43
2019-02-26T21:08:31.910Z,60.53
2019-02-26T21:11:02.478Z,60.20
2019-02-26T21:13:34.870Z,63.03
2019-02-26T21:16:05.286Z,63.60
2019-02-26T21:18:35.840Z,61.43
2019-02-26T21:21:06.374Z,60.90
2019-02-26T21:23:36.942Z,65.37
2019-02-26T21:26:07.447Z,58.53
2019-02-26T21:28:38.060Z,60.67
2019-02-26T21:31:09.919Z,62.03
2019-02-26T21:33:40.672Z,63.63
2019-02-26T21:36:11.205Z,60.30
2019-02-26T21:38:44.506Z,61.67
2019-02-26T21:41:14.998Z,60.57
2019-02-26T21:43:45.513Z,61.70
2019-02-26T21:46:16.012Z,63.43
2019-02-26T21:48:46.532Z,62.17
2019-02-26T21:51:17.057Z,63.77
2019-02-26T21:53:49.219Z,63.67
2019-02-26T21:56:19.595Z,61.77
2019-02-26T21:58:50.271Z,64.43
2019-02-26T22:01:20.908Z,62.10
2019-02-26T22:03:51.418Z,58.33
2019-02-26T22:06:21.924Z,59.67
2019-02-26T22:08:52.458Z,60.60
2019-02-26T22:11:22.943Z,60.57
2019-02-26T22:13:54.022Z,63.27
2019-02-26T22:16:24.477Z,61.13
2019-02-26T22:18:54.996Z,60.70
2019-02-26T22:21:25.572Z,60.23
2019-02-26T22:23:56.263Z,62.70
2019-02-26T22:26:27.885Z,61.27
2019-02-26T22:28:58.430Z,64.83
2019-02-26T22:31:29.428Z,64.57
2019-02-26T22:34:00.091Z,61.33
2019-02-26T22:36:30.792Z,61.73
2019-02-26T22:39:03.665Z,59.80
2019-02-26T22:41:36.075Z,59.50
2019-02-26T22:44:06.703Z,62.30
2019-02-26T22:46:37.175Z,62.60
2019-02-26T22:49:07.964Z,63.43
2019-02-26T22:51:38.663Z,64.70
2019-02-26T22:54:09.880Z,68.10
2019-02-26T22:56:40.882Z,69.07
2019-02-26T22:59:11.457Z,70.30
2019-02-26T23:01:44.603Z,73.33
2019-02-26T23:04:19.276Z,73.47
2019-02-26T23:06:47.862Z,75.20
2019-02-26T23:09:21.433Z,68.17
2019-02-26T23:11:52.712Z,72.43
2019-02-26T23:14:24.761Z,75.17
2019-02-26T23:16:55.642Z,76.97
2019-02-26T23:19:26.212Z,75.63
2019-02-26T23:21:56.872Z,73.67
2019-02-26T23:24:28.467Z,71.63
2019-02-26T23:26:59.713Z,80.27
2019-02-26T23:29:30.357Z,83.70
2019-02-26T23:32:00.987Z,73.83
2019-02-26T23:34:31.526Z,84.67
2019-02-26T23:37:02.039Z,78.50
2019-02-26T23:39:32.629Z,81.93
2019-02-26T23:42:05.834Z,92.33
2019-02-26T23:44:37.206Z,91.40
2019-02-26T23:47:07.879Z,90.50
2019-02-26T23:49:38.383Z,88.03
2019-02-26T23:52:08.884Z,90.97
2019-02-26T23:54:39.942Z,92.10
2019-02-26T23:57:11.797Z,93.67
2019-02-26T23:59:42.541Z,96.23
